sensor_id;sensor_type;location;lat;lon;timestamp;pressure;altitude;pressure_sealevel;temperature;humidity
8703;BME280;9002;42.708;23.186;2023-11-21T00:01:05;94839.81;;;7.43;73.36
8703;BME280;9002;42.708;23.186;2023-11-21T00:03:34;94857.19;;;7.41;73.52
8703;BME280;9002;42.708;23.186;2023-11-21T00:06:01;94852.69;;;7.51;73.67
8703;BME280;9002;42.708;23.186;2023-11-21T00:08:29;94855.13;;;7.28;74.66
8703;BME280;9002;42.708;23.186;2023-11-21T00:10:56;94854.97;;;7.21;76.13
8703;BME280;9002;42.708;23.186;2023-11-21T00:13:25;94854.50;;;7.18;75.74
8703;BME280;9002;42.708;23.186;2023-11-21T00:15:53;94859.94;;;7.39;74.75
8703;BME280;9002;42.708;23.186;2023-11-21T00:18:20;94862.78;;;7.52;74.00
8703;BME280;9002;42.708;23.186;2023-11-21T00:20:47;94866.84;;;7.39;74.58
8703;BME280;9002;42.708;23.186;2023-11-21T00:23:14;94842.72;;;7.32;74.16
8703;BME280;9002;42.708;23.186;2023-11-21T00:25:42;94858.50;;;7.37;74.39
8703;BME280;9002;42.708;23.186;2023-11-21T00:28:09;94850.19;;;7.74;73.95
8703;BME280;9002;42.708;23.186;2023-11-21T00:30:36;94847.38;;;7.44;74.59
8703;BME280;9002;42.708;23.186;2023-11-21T00:33:03;94847.91;;;7.15;75.56
8703;BME280;9002;42.708;23.186;2023-11-21T00:35:30;94849.00;;;7.37;74.94
8703;BME280;9002;42.708;23.186;2023-11-21T00:37:57;94849.16;;;7.44;73.77
8703;BME280;9002;42.708;23.186;2023-11-21T00:40:24;94854.97;;;7.38;74.60
8703;BME280;9002;42.708;23.186;2023-11-21T00:42:52;94851.56;;;7.45;73.87
8703;BME280;9002;42.708;23.186;2023-11-21T00:45:19;94842.09;;;7.13;74.10
8703;BME280;9002;42.708;23.186;2023-11-21T00:47:46;94831.03;;;6.88;75.70
8703;BME280;9002;42.708;23.186;2023-11-21T00:50:13;94846.44;;;7.13;74.76
8703;BME280;9002;42.708;23.186;2023-11-21T00:55:09;94833.22;;;7.48;72.92
8703;BME280;9002;42.708;23.186;2023-11-21T00:57:37;94813.50;;;7.00;74.68
8703;BME280;9002;42.708;23.186;2023-11-21T01:00:06;94842.09;;;7.21;73.98
8703;BME280;9002;42.708;23.186;2023-11-21T01:02:35;94837.59;;;7.07;74.41
8703;BME280;9002;42.708;23.186;2023-11-21T01:05:02;94830.84;;;7.14;75.15
8703;BME280;9002;42.708;23.186;2023-11-21T01:07:29;94839.69;;;7.12;74.99
8703;BME280;9002;42.708;23.186;2023-11-21T01:09:56;94846.13;;;7.08;75.06
8703;BME280;9002;42.708;23.186;2023-11-21T01:12:23;94840.66;;;7.35;74.37
8703;BME280;9002;42.708;23.186;2023-11-21T01:14:50;94837.13;;;7.20;74.74
8703;BME280;9002;42.708;23.186;2023-11-21T01:17:19;94827.78;;;7.11;74.67
8703;BME280;9002;42.708;23.186;2023-11-21T01:19:48;94807.41;;;6.85;75.03
8703;BME280;9002;42.708;23.186;2023-11-21T01:22:15;94842.75;;;6.99;75.24
8703;BME280;9002;42.708;23.186;2023-11-21T01:24:43;94848.88;;;6.90;76.66
8703;BME280;9002;42.708;23.186;2023-11-21T01:27:10;94836.03;;;6.90;76.95
8703;BME280;9002;42.708;23.186;2023-11-21T01:29:37;94837.94;;;6.96;75.52
8703;BME280;9002;42.708;23.186;2023-11-21T01:32:04;94840.53;;;6.80;75.94
8703;BME280;9002;42.708;23.186;2023-11-21T01:34:34;94836.81;;;6.74;76.72
8703;BME280;9002;42.708;23.186;2023-11-21T01:37:01;94835.22;;;6.81;76.11
8703;BME280;9002;42.708;23.186;2023-11-21T01:39:29;94836.66;;;6.59;77.48
8703;BME280;9002;42.708;23.186;2023-11-21T01:41:57;94835.19;;;6.57;76.72
8703;BME280;9002;42.708;23.186;2023-11-21T01:44:24;94849.19;;;6.95;76.81
8703;BME280;9002;42.708;23.186;2023-11-21T01:46:51;94835.38;;;6.80;76.33
8703;BME280;9002;42.708;23.186;2023-11-21T01:49:19;94828.31;;;6.74;77.23
8703;BME280;9002;42.708;23.186;2023-11-21T01:51:49;94823.31;;;6.64;76.09
8703;BME280;9002;42.708;23.186;2023-11-21T01:54:17;94832.00;;;6.71;76.93
8703;BME280;9002;42.708;23.186;2023-11-21T01:56:46;94792.47;;;6.56;76.46
8703;BME280;9002;42.708;23.186;2023-11-21T01:59:16;94829.41;;;6.63;76.86
8703;BME280;9002;42.708;23.186;2023-11-21T02:01:44;94836.03;;;6.74;76.79
8703;BME280;9002;42.708;23.186;2023-11-21T02:04:12;94840.94;;;6.43;77.22
8703;BME280;9002;42.708;23.186;2023-11-21T02:06:39;94828.13;;;6.35;77.19
8703;BME280;9002;42.708;23.186;2023-11-21T02:09:08;94834.88;;;6.52;77.57
8703;BME280;9002;42.708;23.186;2023-11-21T02:11:35;94829.41;;;6.63;77.40
8703;BME280;9002;42.708;23.186;2023-11-21T02:14:04;94835.66;;;6.52;77.83
8703;BME280;9002;42.708;23.186;2023-11-21T02:16:34;94833.75;;;6.62;77.24
8703;BME280;9002;42.708;23.186;2023-11-21T02:19:02;94829.56;;;6.61;77.39
8703;BME280;9002;42.708;23.186;2023-11-21T02:21:30;94826.66;;;6.48;77.58
8703;BME280;9002;42.708;23.186;2023-11-21T02:23:58;94828.78;;;6.69;76.62
8703;BME280;9002;42.708;23.186;2023-11-21T02:26:25;94823.28;;;6.48;76.26
8703;BME280;9002;42.708;23.186;2023-11-21T02:28:53;94819.13;;;6.47;76.66
8703;BME280;9002;42.708;23.186;2023-11-21T02:31:19;94814.13;;;6.45;76.26
8703;BME280;9002;42.708;23.186;2023-11-21T02:33:48;94824.59;;;6.52;76.79
8703;BME280;9002;42.708;23.186;2023-11-21T02:36:15;94820.06;;;6.38;77.48
8703;BME280;9002;42.708;23.186;2023-11-21T02:38:41;94826.34;;;6.51;76.73
8703;BME280;9002;42.708;23.186;2023-11-21T02:41:10;94820.56;;;6.49;76.67
8703;BME280;9002;42.708;23.186;2023-11-21T02:43:36;94827.81;;;6.54;77.30
8703;BME280;9002;42.708;23.186;2023-11-21T02:46:04;94821.75;;;5.96;77.87
8703;BME280;9002;42.708;23.186;2023-11-21T02:48:31;94823.28;;;6.23;77.19
8703;BME280;9002;42.708;23.186;2023-11-21T02:50:58;94824.97;;;5.99;79.11
8703;BME280;9002;42.708;23.186;2023-11-21T02:53:25;94817.47;;;6.13;79.15
8703;BME280;9002;42.708;23.186;2023-11-21T02:55:51;94803.84;;;5.87;79.21
8703;BME280;9002;42.708;23.186;2023-11-21T02:58:20;94819.25;;;6.21;79.20
8703;BME280;9002;42.708;23.186;2023-11-21T03:00:46;94790.28;;;5.94;78.46
8703;BME280;9002;42.708;23.186;2023-11-21T03:03:13;94821.03;;;6.37;77.92
8703;BME280;9002;42.708;23.186;2023-11-21T03:05:40;94802.72;;;6.40;76.84
8703;BME280;9002;42.708;23.186;2023-11-21T03:08:07;94811.38;;;6.39;77.17
8703;BME280;9002;42.708;23.186;2023-11-21T03:10:34;94814.09;;;6.21;77.17
8703;BME280;9002;42.708;23.186;2023-11-21T03:13:01;94818.78;;;6.42;77.32
8703;BME280;9002;42.708;23.186;2023-11-21T03:15:29;94821.53;;;6.32;77.70
8703;BME280;9002;42.708;23.186;2023-11-21T03:17:58;94820.06;;;6.29;78.00
8703;BME280;9002;42.708;23.186;2023-11-21T03:20:25;94823.44;;;6.46;77.73
8703;BME280;9002;42.708;23.186;2023-11-21T03:22:51;94828.16;;;6.83;76.48
8703;BME280;9002;42.708;23.186;2023-11-21T03:25:18;94832.94;;;6.62;76.99
8703;BME280;9002;42.708;23.186;2023-11-21T03:27:45;94831.66;;;6.50;77.20
8703;BME280;9002;42.708;23.186;2023-11-21T03:30:12;94840.63;;;6.46;76.47
8703;BME280;9002;42.708;23.186;2023-11-21T03:32:41;94835.66;;;6.44;77.28
8703;BME280;9002;42.708;23.186;2023-11-21T03:35:08;94836.13;;;6.48;77.63
8703;BME280;9002;42.708;23.186;2023-11-21T03:37:35;94834.53;;;6.31;77.04
8703;BME280;9002;42.708;23.186;2023-11-21T03:40:04;94832.25;;;6.36;77.52
8703;BME280;9002;42.708;23.186;2023-11-21T03:42:33;94829.53;;;6.29;77.86
8703;BME280;9002;42.708;23.186;2023-11-21T03:45:00;94821.63;;;6.14;77.32
8703;BME280;9002;42.708;23.186;2023-11-21T03:47:28;94817.41;;;5.97;78.67
8703;BME280;9002;42.708;23.186;2023-11-21T03:49:56;94819.22;;;6.13;77.96
8703;BME280;9002;42.708;23.186;2023-11-21T03:52:24;94818.09;;;6.15;77.74
8703;BME280;9002;42.708;23.186;2023-11-21T03:54:50;94811.25;;;6.32;77.54
8703;BME280;9002;42.708;23.186;2023-11-21T03:57:16;94803.84;;;6.29;76.61
8703;BME280;9002;42.708;23.186;2023-11-21T03:59:43;94802.19;;;6.12;77.13
8703;BME280;9002;42.708;23.186;2023-11-21T04:02:10;94814.84;;;5.97;77.33
8703;BME280;9002;42.708;23.186;2023-11-21T04:04:37;94811.03;;;6.09;77.31
8703;BME280;9002;42.708;23.186;2023-11-21T04:07:06;94812.00;;;6.08;77.39
8703;BME280;9002;42.708;23.186;2023-11-21T04:09:32;94806.19;;;6.06;77.85
8703;BME280;9002;42.708;23.186;2023-11-21T04:12:00;94795.03;;;6.32;76.69
8703;BME280;9002;42.708;23.186;2023-11-21T04:14:27;94797.44;;;6.49;76.39
8703;BME280;9002;42.708;23.186;2023-11-21T04:16:54;94777.19;;;6.46;75.67
8703;BME280;9002;42.708;23.186;2023-11-21T04:19:20;94792.59;;;6.14;77.16
8703;BME280;9002;42.708;23.186;2023-11-21T04:21:47;94801.94;;;6.31;76.87
8703;BME280;9002;42.708;23.186;2023-11-21T04:24:15;94777.19;;;6.22;76.43
8703;BME280;9002;42.708;23.186;2023-11-21T04:26:43;94791.00;;;6.21;76.72
8703;BME280;9002;42.708;23.186;2023-11-21T04:29:10;94802.88;;;6.38;76.02
8703;BME280;9002;42.708;23.186;2023-11-21T04:31:36;94805.13;;;6.25;76.61
8703;BME280;9002;42.708;23.186;2023-11-21T04:34:03;94802.88;;;6.46;75.76
8703;BME280;9002;42.708;23.186;2023-11-21T04:36:30;94799.38;;;6.31;76.68
8703;BME280;9002;42.708;23.186;2023-11-21T04:38:57;94807.81;;;6.07;78.22
8703;BME280;9002;42.708;23.186;2023-11-21T04:41:26;94811.34;;;6.06;77.85
8703;BME280;9002;42.708;23.186;2023-11-21T04:43:53;94813.78;;;6.24;77.65
8703;BME280;9002;42.708;23.186;2023-11-21T04:46:20;94813.41;;;6.03;78.04
8703;BME280;9002;42.708;23.186;2023-11-21T04:48:47;94800.63;;;6.19;77.46
8703;BME280;9002;42.708;23.186;2023-11-21T04:51:14;94817.16;;;6.16;77.21
8703;BME280;9002;42.708;23.186;2023-11-21T04:53:40;94798.31;;;6.00;77.49
8703;BME280;9002;42.708;23.186;2023-11-21T04:56:08;94817.91;;;6.01;78.29
8703;BME280;9002;42.708;23.186;2023-11-21T04:58:36;94806.84;;;6.08;78.27
8703;BME280;9002;42.708;23.186;2023-11-21T05:01:06;94811.03;;;6.09;78.33
8703;BME280;9002;42.708;23.186;2023-11-21T05:03:33;94815.88;;;6.20;77.52
8703;BME280;9002;42.708;23.186;2023-11-21T05:06:00;94817.63;;;6.20;76.49
8703;BME280;9002;42.708;23.186;2023-11-21T05:08:27;94814.09;;;6.21;77.44
8703;BME280;9002;42.708;23.186;2023-11-21T05:10:54;94805.47;;;6.30;76.79
8703;BME280;9002;42.708;23.186;2023-11-21T05:13:21;94798.06;;;5.85;78.15
8703;BME280;9002;42.708;23.186;2023-11-21T05:15:54;94792.19;;;5.92;79.04
8703;BME280;9002;42.708;23.186;2023-11-21T05:18:21;94800.72;;;6.01;78.83
8703;BME280;9002;42.708;23.186;2023-11-21T05:20:47;94795.25;;;5.96;77.13
8703;BME280;9002;42.708;23.186;2023-11-21T05:23:15;94785.97;;;6.03;77.54
8703;BME280;9002;42.708;23.186;2023-11-21T05:25:42;94799.94;;;6.09;78.40
8703;BME280;9002;42.708;23.186;2023-11-21T05:28:09;94803.78;;;6.05;77.76
8703;BME280;9002;42.708;23.186;2023-11-21T05:30:36;94815.97;;;6.03;78.76
8703;BME280;9002;42.708;23.186;2023-11-21T05:33:05;94816.22;;;6.25;78.06
8703;BME280;9002;42.708;23.186;2023-11-21T05:35:32;94775.22;;;6.00;77.35
8703;BME280;9002;42.708;23.186;2023-11-21T05:37:59;94816.22;;;6.42;76.44
8703;BME280;9002;42.708;23.186;2023-11-21T05:40:26;94810.50;;;5.97;78.44
8703;BME280;9002;42.708;23.186;2023-11-21T05:42:55;94818.91;;;6.16;76.68
8703;BME280;9002;42.708;23.186;2023-11-21T05:45:22;94815.06;;;6.20;77.11
8703;BME280;9002;42.708;23.186;2023-11-21T05:47:49;94816.97;;;6.10;76.79
8703;BME280;9002;42.708;23.186;2023-11-21T05:50:17;94826.13;;;5.78;77.98
8703;BME280;9002;42.708;23.186;2023-11-21T05:52:45;94799.53;;;5.87;79.10
8703;BME280;9002;42.708;23.186;2023-11-21T05:55:13;94811.19;;;6.08;78.44
8703;BME280;9002;42.708;23.186;2023-11-21T05:57:41;94812.91;;;5.91;78.60
8703;BME280;9002;42.708;23.186;2023-11-21T06:00:10;94822.84;;;5.94;78.02
8703;BME280;9002;42.708;23.186;2023-11-21T06:02:41;94805.19;;;5.91;78.44
8703;BME280;9002;42.708;23.186;2023-11-21T06:05:08;94818.44;;;6.20;77.51
8703;BME280;9002;42.708;23.186;2023-11-21T06:07:37;94813.47;;;6.43;77.27
8703;BME280;9002;42.708;23.186;2023-11-21T06:10:06;94820.00;;;6.05;78.08
8703;BME280;9002;42.708;23.186;2023-11-21T06:12:34;94818.78;;;6.25;77.67
8703;BME280;9002;42.708;23.186;2023-11-21T06:15:02;94825.81;;;6.15;78.36
8703;BME280;9002;42.708;23.186;2023-11-21T06:17:30;94821.03;;;6.37;77.20
8703;BME280;9002;42.708;23.186;2023-11-21T06:19:57;94824.47;;;5.95;77.80
8703;BME280;9002;42.708;23.186;2023-11-21T06:22:24;94830.78;;;6.09;77.88
8703;BME280;9002;42.708;23.186;2023-11-21T06:24:52;94811.97;;;6.00;77.77
8703;BME280;9002;42.708;23.186;2023-11-21T06:27:19;94823.91;;;6.25;77.50
8703;BME280;9002;42.708;23.186;2023-11-21T06:29:46;94828.44;;;6.56;75.80
8703;BME280;9002;42.708;23.186;2023-11-21T06:32:13;94829.44;;;6.71;75.40
8703;BME280;9002;42.708;23.186;2023-11-21T06:34:42;94842.41;;;6.45;76.45
8703;BME280;9002;42.708;23.186;2023-11-21T06:37:08;94817.03;;;6.34;76.22
8703;BME280;9002;42.708;23.186;2023-11-21T06:39:36;94847.88;;;6.34;75.79
8703;BME280;9002;42.708;23.186;2023-11-21T06:42:05;94849.63;;;6.34;75.71
8703;BME280;9002;42.708;23.186;2023-11-21T06:44:32;94855.25;;;6.29;76.58
8703;BME280;9002;42.708;23.186;2023-11-21T06:47:01;94857.97;;;6.36;76.07
8703;BME280;9002;42.708;23.186;2023-11-21T06:49:28;94849.88;;;6.14;76.65
8703;BME280;9002;42.708;23.186;2023-11-21T06:51:56;94853.16;;;6.33;76.42
8703;BME280;9002;42.708;23.186;2023-11-21T06:54:23;94854.44;;;6.28;75.67
8703;BME280;9002;42.708;23.186;2023-11-21T06:56:50;94851.84;;;6.37;76.42
8703;BME280;9002;42.708;23.186;2023-11-21T06:59:20;94848.38;;;6.62;76.31
8703;BME280;9002;42.708;23.186;2023-11-21T07:01:47;94849.38;;;6.85;75.25
8703;BME280;9002;42.708;23.186;2023-11-21T07:04:14;94857.38;;;6.74;76.12
8703;BME280;9002;42.708;23.186;2023-11-21T07:06:41;94846.94;;;6.68;75.54
8703;BME280;9002;42.708;23.186;2023-11-21T07:09:09;94851.88;;;6.28;76.72
8703;BME280;9002;42.708;23.186;2023-11-21T07:11:37;94844.81;;;6.47;76.37
8703;BME280;9002;42.708;23.186;2023-11-21T07:14:04;94842.59;;;6.68;75.05
8703;BME280;9002;42.708;23.186;2023-11-21T07:16:34;94840.50;;;6.55;76.66
8703;BME280;9002;42.708;23.186;2023-11-21T07:19:03;94841.16;;;6.66;75.83
8703;BME280;9002;42.708;23.186;2023-11-21T07:21:31;94844.03;;;6.54;76.43
8703;BME280;9002;42.708;23.186;2023-11-21T07:23:59;94838.09;;;6.78;76.43
8703;BME280;9002;42.708;23.186;2023-11-21T07:26:26;94834.88;;;7.01;76.01
8703;BME280;9002;42.708;23.186;2023-11-21T07:28:53;94836.97;;;6.73;75.14
8703;BME280;9002;42.708;23.186;2023-11-21T07:31:21;94841.63;;;6.69;75.37
8703;BME280;9002;42.708;23.186;2023-11-21T07:33:49;94849.53;;;6.92;75.98
8703;BME280;9002;42.708;23.186;2023-11-21T07:36:16;94848.41;;;6.86;75.79
8703;BME280;9002;42.708;23.186;2023-11-21T07:38:44;94849.97;;;6.95;75.36
8703;BME280;9002;42.708;23.186;2023-11-21T07:41:11;94828.75;;;7.10;74.35
8703;BME280;9002;42.708;23.186;2023-11-21T07:43:41;94836.16;;;7.29;74.64
8703;BME280;9002;42.708;23.186;2023-11-21T07:46:08;94839.50;;;7.38;73.77
8703;BME280;9002;42.708;23.186;2023-11-21T07:48:34;94830.84;;;7.22;74.01
8703;BME280;9002;42.708;23.186;2023-11-21T07:51:03;94818.59;;;7.41;73.05
8703;BME280;9002;42.708;23.186;2023-11-21T07:53:30;94833.72;;;7.44;73.01
8703;BME280;9002;42.708;23.186;2023-11-21T07:55:57;94833.97;;;7.57;73.56
8703;BME280;9002;42.708;23.186;2023-11-21T07:58:24;94832.19;;;7.57;73.60
8703;BME280;9002;42.708;23.186;2023-11-21T08:00:51;94812.38;;;7.66;72.85
8703;BME280;9002;42.708;23.186;2023-11-21T08:03:18;94828.66;;;7.67;72.72
8703;BME280;9002;42.708;23.186;2023-11-21T08:05:45;94814.09;;;7.90;72.00
8703;BME280;9002;42.708;23.186;2023-11-21T08:08:13;94821.88;;;7.66;72.17
8703;BME280;9002;42.708;23.186;2023-11-21T08:10:40;94812.50;;;7.81;71.95
8703;BME280;9002;42.708;23.186;2023-11-21T08:13:07;94815.06;;;7.89;71.85
8703;BME280;9002;42.708;23.186;2023-11-21T08:15:34;94819.38;;;7.97;71.89
8703;BME280;9002;42.708;23.186;2023-11-21T08:18:02;94815.38;;;8.17;71.46
8703;BME280;9002;42.708;23.186;2023-11-21T08:20:30;94818.97;;;7.77;72.18
8703;BME280;9002;42.708;23.186;2023-11-21T08:22:56;94822.19;;;7.71;72.43
8703;BME280;9002;42.708;23.186;2023-11-21T08:25:25;94821.16;;;7.88;72.08
8703;BME280;9002;42.708;23.186;2023-11-21T08:27:52;94811.47;;;7.98;71.27
8703;BME280;9002;42.708;23.186;2023-11-21T08:30:19;94820.00;;;7.99;72.13
8703;BME280;9002;42.708;23.186;2023-11-21T08:32:49;94812.63;;;8.18;71.54
8703;BME280;9002;42.708;23.186;2023-11-21T08:35:16;94817.41;;;8.38;71.22
8703;BME280;9002;42.708;23.186;2023-11-21T08:37:43;94815.13;;;8.66;69.92
8703;BME280;9002;42.708;23.186;2023-11-21T08:40:12;94813.16;;;8.68;70.06
8703;BME280;9002;42.708;23.186;2023-11-21T08:42:43;94803.88;;;8.81;69.24
8703;BME280;9002;42.708;23.186;2023-11-21T08:45:10;94815.06;;;8.74;69.37
8703;BME280;9002;42.708;23.186;2023-11-21T08:47:38;94812.00;;;8.70;69.40
8703;BME280;9002;42.708;23.186;2023-11-21T08:50:06;94814.59;;;8.70;69.25
8703;BME280;9002;42.708;23.186;2023-11-21T08:52:33;94800.59;;;8.87;69.22
8703;BME280;9002;42.708;23.186;2023-11-21T08:55:00;94795.03;;;8.76;69.16
8703;BME280;9002;42.708;23.186;2023-11-21T08:57:33;94794.91;;;8.92;69.26
8703;BME280;9002;42.708;23.186;2023-11-21T09:00:02;94792.16;;;8.93;68.70
8703;BME280;9002;42.708;23.186;2023-11-21T09:02:30;94784.88;;;8.97;68.45
8703;BME280;9002;42.708;23.186;2023-11-21T09:04:59;94778.84;;;9.05;68.69
8703;BME280;9002;42.708;23.186;2023-11-21T09:07:28;94763.19;;;9.06;68.09
8703;BME280;9002;42.708;23.186;2023-11-21T09:09:56;94750.28;;;9.06;68.03
8703;BME280;9002;42.708;23.186;2023-11-21T09:12:22;94755.25;;;8.93;68.26
8703;BME280;9002;42.708;23.186;2023-11-21T09:14:50;94737.00;;;8.94;68.41
8703;BME280;9002;42.708;23.186;2023-11-21T09:17:18;94738.53;;;9.04;68.34
8703;BME280;9002;42.708;23.186;2023-11-21T09:19:45;94724.28;;;8.93;68.24
8703;BME280;9002;42.708;23.186;2023-11-21T09:22:15;94739.00;;;9.22;67.56
8703;BME280;9002;42.708;23.186;2023-11-21T09:24:42;94739.97;;;9.21;67.44
8703;BME280;9002;42.708;23.186;2023-11-21T09:27:09;94726.91;;;9.22;67.57
8703;BME280;9002;42.708;23.186;2023-11-21T09:29:36;94718.78;;;9.11;67.74
8703;BME280;9002;42.708;23.186;2023-11-21T09:32:04;94704.00;;;9.49;67.25
8703;BME280;9002;42.708;23.186;2023-11-21T09:34:33;94697.56;;;9.59;66.89
8703;BME280;9002;42.708;23.186;2023-11-21T09:37:04;94694.91;;;9.38;67.16
8703;BME280;9002;42.708;23.186;2023-11-21T09:39:32;94670.69;;;9.39;68.39
8703;BME280;9002;42.708;23.186;2023-11-21T09:42:04;94682.69;;;9.62;67.32
8703;BME280;9002;42.708;23.186;2023-11-21T09:44:44;94685.34;;;9.68;67.04
8703;BME280;9002;42.708;23.186;2023-11-21T09:47:15;94678.50;;;9.60;66.95
8703;BME280;9002;42.708;23.186;2023-11-21T09:49:47;94666.47;;;9.68;67.29
8703;BME280;9002;42.708;23.186;2023-11-21T09:52:22;94657.88;;;9.82;66.86
8703;BME280;9002;42.708;23.186;2023-11-21T09:54:51;94649.56;;;9.86;66.49
8703;BME280;9002;42.708;23.186;2023-11-21T09:57:19;94630.19;;;9.97;66.66
8703;BME280;9002;42.708;23.186;2023-11-21T09:59:51;94634.03;;;9.86;66.38
8703;BME280;9002;42.708;23.186;2023-11-21T10:02:24;94635.16;;;9.99;66.45
8703;BME280;9002;42.708;23.186;2023-11-21T10:04:55;94627.41;;;9.99;66.63
8703;BME280;9002;42.708;23.186;2023-11-21T10:07:22;94625.19;;;10.17;65.49
8703;BME280;9002;42.708;23.186;2023-11-21T10:09:51;94632.44;;;10.21;65.79
8703;BME280;9002;42.708;23.186;2023-11-21T10:12:18;94625.66;;;10.48;64.70
8703;BME280;9002;42.708;23.186;2023-11-21T10:14:48;94608.44;;;10.62;63.48
8703;BME280;9002;42.708;23.186;2023-11-21T10:17:15;94622.16;;;10.90;62.25
8703;BME280;9002;42.708;23.186;2023-11-21T10:19:46;94608.72;;;11.15;61.89
8703;BME280;9002;42.708;23.186;2023-11-21T10:22:15;94615.28;;;11.65;60.42
8703;BME280;9002;42.708;23.186;2023-11-21T10:24:42;94596.81;;;11.81;60.06
8703;BME280;9002;42.708;23.186;2023-11-21T10:27:09;94598.94;;;11.65;60.60
8703;BME280;9002;42.708;23.186;2023-11-21T10:29:36;94607.69;;;11.50;60.05
8703;BME280;9002;42.708;23.186;2023-11-21T10:32:04;94586.13;;;11.43;59.55
8703;BME280;9002;42.708;23.186;2023-11-21T10:34:31;94598.69;;;11.40;60.12
8703;BME280;9002;42.708;23.186;2023-11-21T10:36:58;94597.06;;;11.39;60.15
8703;BME280;9002;42.708;23.186;2023-11-21T10:39:26;94587.44;;;11.19;60.44
8703;BME280;9002;42.708;23.186;2023-11-21T10:41:56;94582.44;;;11.18;61.51
8703;BME280;9002;42.708;23.186;2023-11-21T10:44:23;94574.41;;;10.93;61.43
8703;BME280;9002;42.708;23.186;2023-11-21T10:46:52;94581.66;;;10.76;61.59
8703;BME280;9002;42.708;23.186;2023-11-21T10:49:22;94586.31;;;10.87;61.72
8703;BME280;9002;42.708;23.186;2023-11-21T10:51:50;94584.09;;;10.84;61.66
8703;BME280;9002;42.708;23.186;2023-11-21T10:54:19;94574.44;;;10.65;62.35
8703;BME280;9002;42.708;23.186;2023-11-21T10:56:50;94564.59;;;10.54;62.61
8703;BME280;9002;42.708;23.186;2023-11-21T10:59:17;94546.00;;;10.72;61.88
8703;BME280;9002;42.708;23.186;2023-11-21T11:01:46;94575.56;;;10.90;61.50
8703;BME280;9002;42.708;23.186;2023-11-21T11:04:15;94559.81;;;10.85;60.16
8703;BME280;9002;42.708;23.186;2023-11-21T11:06:44;94556.66;;;10.55;61.50
8703;BME280;9002;42.708;23.186;2023-11-21T11:09:13;94559.97;;;10.43;62.04
8703;BME280;9002;42.708;23.186;2023-11-21T11:11:42;94550.88;;;10.53;62.52
8703;BME280;9002;42.708;23.186;2023-11-21T11:14:12;94551.53;;;10.62;62.45
8703;BME280;9002;42.708;23.186;2023-11-21T11:16:40;94551.38;;;10.70;61.61
8703;BME280;9002;42.708;23.186;2023-11-21T11:19:13;94482.63;;;10.54;60.89
8703;BME280;9002;42.708;23.186;2023-11-21T11:21:51;94542.88;;;10.83;61.00
8703;BME280;9002;42.708;23.186;2023-11-21T11:24:36;94538.09;;;10.80;60.97
8703;BME280;9002;42.708;23.186;2023-11-21T11:27:18;94519.03;;;10.87;60.95
8703;BME280;9002;42.708;23.186;2023-11-21T11:29:58;94502.81;;;10.72;59.94
8703;BME280;9002;42.708;23.186;2023-11-21T11:32:36;94517.22;;;10.88;60.61
8703;BME280;9002;42.708;23.186;2023-11-21T11:35:11;94520.44;;;10.90;60.28
8703;BME280;9002;42.708;23.186;2023-11-21T11:37:44;94512.47;;;10.91;60.14
8703;BME280;9002;42.708;23.186;2023-11-21T11:40:11;94510.28;;;11.02;60.10
8703;BME280;9002;42.708;23.186;2023-11-21T11:42:38;94524.06;;;11.09;59.86
8703;BME280;9002;42.708;23.186;2023-11-21T11:45:18;94519.44;;;10.91;60.83
8703;BME280;9002;42.708;23.186;2023-11-21T11:47:47;94513.81;;;10.81;61.50
8703;BME280;9002;42.708;23.186;2023-11-21T11:50:14;94535.78;;;11.05;62.11
8703;BME280;9002;42.708;23.186;2023-11-21T11:52:44;94527.56;;;10.81;63.56
8703;BME280;9002;42.708;23.186;2023-11-21T11:55:12;94526.63;;;11.02;63.49
8703;BME280;9002;42.708;23.186;2023-11-21T11:57:41;94530.41;;;11.00;63.32
8703;BME280;9002;42.708;23.186;2023-11-21T12:00:16;94519.72;;;10.68;65.81
8703;BME280;9002;42.708;23.186;2023-11-21T12:02:47;94521.28;;;10.63;65.16
8703;BME280;9002;42.708;23.186;2023-11-21T12:05:15;94518.63;;;10.49;66.42
8703;BME280;9002;42.708;23.186;2023-11-21T12:07:48;94527.66;;;10.67;65.69
8703;BME280;9002;42.708;23.186;2023-11-21T12:10:18;94532.63;;;10.62;66.92
8703;BME280;9002;42.708;23.186;2023-11-21T12:12:46;94531.91;;;10.74;67.52
8703;BME280;9002;42.708;23.186;2023-11-21T12:15:14;94532.06;;;10.66;67.60
8703;BME280;9002;42.708;23.186;2023-11-21T12:17:42;94529.22;;;10.61;68.28
8703;BME280;9002;42.708;23.186;2023-11-21T12:20:12;94535.16;;;10.89;67.58
8703;BME280;9002;42.708;23.186;2023-11-21T12:22:44;94535.28;;;10.75;67.10
8703;BME280;9002;42.708;23.186;2023-11-21T12:25:13;94513.63;;;10.48;68.51
8703;BME280;9002;42.708;23.186;2023-11-21T12:27:42;94523.97;;;10.48;68.55
8703;BME280;9002;42.708;23.186;2023-11-21T12:30:11;94523.56;;;10.38;70.34
8703;BME280;9002;42.708;23.186;2023-11-21T12:32:41;94531.66;;;10.28;69.83
8703;BME280;9002;42.708;23.186;2023-11-21T12:35:09;94537.84;;;10.34;70.40
8703;BME280;9002;42.708;23.186;2023-11-21T12:37:38;94527.03;;;10.23;72.01
8703;BME280;9002;42.708;23.186;2023-11-21T12:40:07;94521.16;;;10.43;71.61
8703;BME280;9002;42.708;23.186;2023-11-21T12:42:37;94521.13;;;10.30;71.37
8703;BME280;9002;42.708;23.186;2023-11-21T12:45:10;94523.47;;;10.24;72.31
8703;BME280;9002;42.708;23.186;2023-11-21T12:47:41;94519.94;;;10.11;73.17
8703;BME280;9002;42.708;23.186;2023-11-21T12:50:09;94512.63;;;10.14;73.79
8703;BME280;9002;42.708;23.186;2023-11-21T12:52:42;94484.78;;;10.16;72.16
8703;BME280;9002;42.708;23.186;2023-11-21T12:55:14;94494.25;;;10.03;72.97
8703;BME280;9002;42.708;23.186;2023-11-21T12:57:43;94491.13;;;10.14;71.94
8703;BME280;9002;42.708;23.186;2023-11-21T13:00:11;94460.53;;;10.17;70.42
8703;BME280;9002;42.708;23.186;2023-11-21T13:02:41;94479.63;;;10.16;70.42
8703;BME280;9002;42.708;23.186;2023-11-21T13:05:08;94488.66;;;9.99;71.80
8703;BME280;9002;42.708;23.186;2023-11-21T13:07:45;94490.28;;;10.07;72.54
8703;BME280;9002;42.708;23.186;2023-11-21T13:10:14;94485.31;;;10.05;70.73
8703;BME280;9002;42.708;23.186;2023-11-21T13:12:43;94487.25;;;9.69;72.00
8703;BME280;9002;42.708;23.186;2023-11-21T13:15:14;94488.66;;;9.71;72.15
8703;BME280;9002;42.708;23.186;2023-11-21T13:17:41;94485.84;;;9.94;71.43
8703;BME280;9002;42.708;23.186;2023-11-21T13:20:10;94462.59;;;9.66;70.99
8703;BME280;9002;42.708;23.186;2023-11-21T13:22:47;94472.91;;;9.94;70.82
8703;BME280;9002;42.708;23.186;2023-11-21T13:25:15;94480.28;;;9.97;70.00
8703;BME280;9002;42.708;23.186;2023-11-21T13:27:43;94473.91;;;9.93;70.05